createdAt,value
2018-06-17T00:01:40.728Z,93.95
2018-06-17T00:04:10.402Z,95.53
2018-06-17T00:06:39.468Z,96.22
2018-06-17T00:09:09.656Z,94.76
2018-06-17T00:11:39.010Z,96.67
2018-06-17T00:14:08.351Z,95.92
2018-06-17T00:16:37.724Z,95.75
2018-06-17T00:19:07.115Z,95.65
2018-06-17T00:21:36.525Z,95.66
2018-06-17T00:24:05.856Z,95.23
2018-06-17T00:26:35.232Z,94.84
2018-06-17T00:29:04.591Z,94.40
2018-06-17T00:31:33.932Z,93.84
2018-06-17T00:34:03.335Z,93.18
2018-06-17T00:36:32.680Z,93.36
2018-06-17T00:39:02.009Z,93.53
2018-06-17T00:41:31.432Z,93.87
2018-06-17T00:44:00.764Z,96.10
2018-06-17T00:46:30.064Z,97.18
2018-06-17T00:48:59.396Z,96.80
2018-06-17T00:51:28.781Z,95.20
2018-06-17T00:53:58.100Z,95.89
2018-06-17T00:56:27.436Z,95.25
2018-06-17T00:58:56.760Z,94.47
2018-06-17T01:01:26.093Z,94.37
2018-06-17T01:03:55.453Z,96.50
2018-06-17T01:06:24.795Z,97.31
2018-06-17T01:08:54.110Z,97.65
2018-06-17T01:11:23.453Z,98.17
2018-06-17T01:13:53.315Z,98.67
2018-06-17T01:16:22.836Z,98.72
2018-06-17T01:18:52.209Z,97.65
2018-06-17T01:21:21.621Z,97.22
2018-06-17T01:23:50.941Z,96.77
2018-06-17T01:26:20.247Z,96.01
2018-06-17T01:28:49.625Z,95.86
2018-06-17T01:31:18.964Z,95.03
2018-06-17T01:33:48.311Z,94.78
2018-06-17T01:36:17.355Z,94.62
2018-06-17T01:38:46.699Z,95.59
2018-06-17T01:41:16.020Z,96.15
2018-06-17T01:43:45.327Z,96.31
2018-06-17T01:46:14.675Z,96.35
2018-06-17T01:48:44.054Z,96.53
2018-06-17T01:51:13.331Z,96.17
2018-06-17T01:53:42.675Z,96.09
2018-06-17T01:56:11.985Z,96.87
2018-06-17T01:58:41.323Z,96.17
2018-06-17T02:01:10.637Z,96.30
2018-06-17T02:03:45.268Z,96.61
2018-06-17T02:06:19.968Z,96.95
2018-06-17T02:08:54.501Z,97.03
2018-06-17T02:11:28.869Z,97.28
2018-06-17T02:14:03.187Z,96.97
2018-06-17T02:16:32.510Z,97.50
2018-06-17T02:19:01.876Z,97.01
2018-06-17T02:21:31.214Z,95.83
2018-06-17T02:24:00.639Z,96.54
2018-06-17T02:26:29.987Z,95.34
2018-06-17T02:28:59.339Z,95.82
2018-06-17T02:31:28.665Z,95.47
2018-06-17T02:33:57.992Z,95.62
2018-06-17T02:36:27.680Z,96.03
2018-06-17T02:38:57.359Z,95.97
2018-06-17T02:41:27.007Z,96.91
2018-06-17T02:43:56.659Z,96.59
2018-06-17T02:46:31.424Z,96.83
2018-06-17T02:49:05.872Z,96.79
2018-06-17T02:51:40.379Z,95.90
2018-06-17T02:54:47.652Z,95.64
2018-06-17T02:57:20.049Z,96.24
2018-06-17T02:59:49.357Z,96.17
2018-06-17T03:02:18.676Z,96.51
2018-06-17T03:04:48.017Z,96.81
2018-06-17T03:07:17.348Z,96.14
2018-06-17T03:09:46.703Z,95.96
2018-06-17T03:12:16.049Z,95.31
2018-06-17T03:14:45.352Z,96.50
2018-06-17T03:17:14.672Z,95.81
2018-06-17T03:19:44.016Z,95.80
2018-06-17T03:22:13.340Z,97.14
2018-06-17T03:24:47.959Z,96.53
2018-06-17T03:28:24.255Z,96.23
2018-06-17T03:30:58.785Z,95.14
2018-06-17T03:33:33.225Z,95.68
2018-06-17T03:36:07.840Z,95.21
2018-06-17T03:38:37.407Z,94.75
2018-06-17T03:41:06.896Z,94.03
2018-06-17T03:43:36.317Z,95.40
2018-06-17T03:46:05.697Z,95.26
2018-06-17T03:48:35.084Z,95.79
2018-06-17T03:51:04.428Z,94.55
2018-06-17T03:53:33.845Z,94.77
2018-06-17T03:56:06.492Z,94.53
2018-06-17T03:58:35.807Z,94.51
2018-06-17T04:01:05.133Z,95.42
2018-06-17T04:03:34.456Z,95.13
2018-06-17T04:06:03.775Z,94.58
2018-06-17T04:08:33.108Z,94.83
2018-06-17T04:11:02.420Z,94.66
2018-06-17T04:13:31.766Z,94.43
2018-06-17T04:16:01.164Z,93.71
2018-06-17T04:18:30.424Z,93.07
2018-06-17T04:20:59.766Z,93.16
2018-06-17T04:23:29.097Z,92.27
2018-06-17T04:25:58.412Z,92.13
2018-06-17T04:28:27.766Z,92.44
2018-06-17T04:30:57.621Z,93.15
2018-06-17T04:33:26.965Z,92.17
2018-06-17T04:45:11.432Z,90.34
2018-06-17T04:47:40.764Z,90.68
2018-06-17T04:50:10.088Z,90.44
2018-06-17T04:52:39.419Z,90.91
2018-06-17T04:55:08.735Z,90.84
2018-06-17T04:57:37.808Z,90.69
2018-06-17T05:00:07.238Z,89.35
2018-06-17T05:02:36.557Z,89.10
2018-06-17T05:05:06.268Z,90.06
2018-06-17T05:07:35.585Z,91.61
2018-06-17T05:10:04.984Z,90.81
2018-06-17T05:12:34.328Z,89.30
2018-06-17T05:15:04.082Z,90.44
2018-06-17T05:17:33.412Z,89.98
2018-06-17T05:20:02.768Z,89.55
2018-06-17T05:22:32.113Z,90.91
2018-06-17T05:25:01.462Z,89.04
2018-06-17T05:27:30.885Z,89.36
2018-06-17T05:30:00.191Z,87.19
2018-06-17T05:32:29.500Z,89.09
2018-06-17T05:34:58.868Z,86.81
2018-06-17T05:37:28.260Z,85.72
2018-06-17T05:39:57.575Z,84.69
2018-06-17T05:42:26.889Z,83.10
2018-06-17T05:44:56.219Z,83.48
2018-06-17T05:47:25.573Z,81.68
2018-06-17T05:49:54.915Z,80.45
2018-06-17T05:52:24.227Z,81.99
2018-06-17T05:54:53.564Z,80.16
2018-06-17T05:57:22.917Z,80.29
2018-06-17T05:59:52.244Z,79.84
2018-06-17T06:02:21.572Z,78.56
2018-06-17T06:04:50.867Z,78.70
2018-06-17T06:07:20.472Z,79.58
2018-06-17T06:09:49.807Z,78.58
2018-06-17T06:12:19.172Z,78.33
2018-06-17T06:14:48.527Z,76.54
2018-06-17T06:17:17.827Z,77.94
2018-06-17T06:19:47.170Z,77.24
2018-06-17T06:22:16.491Z,78.48
2018-06-17T06:24:45.869Z,77.83
2018-06-17T06:27:15.131Z,78.03
2018-06-17T06:29:44.465Z,79.37
2018-06-17T06:32:13.805Z,77.49
2018-06-17T06:34:43.099Z,78.19
2018-06-17T06:37:12.509Z,77.42
2018-06-17T06:39:41.784Z,76.59
2018-06-17T06:42:11.116Z,77.89
2018-06-17T06:44:40.446Z,77.69
2018-06-17T06:47:09.835Z,76.32
2018-06-17T06:49:39.140Z,78.94
2018-06-17T06:52:08.580Z,78.69
2018-06-17T06:54:37.912Z,76.17
2018-06-17T06:57:07.485Z,76.01
2018-06-17T06:59:36.848Z,76.08
2018-06-17T07:02:23.256Z,74.84
2018-06-17T07:05:09.628Z,74.40
2018-06-17T07:07:56.112Z,74.22
2018-06-17T07:10:28.803Z,74.45
2018-06-17T07:12:58.172Z,74.95
2018-06-17T07:15:44.467Z,75.20
2018-06-17T07:18:30.845Z,73.48
2018-06-17T07:21:00.204Z,74.70
2018-06-17T07:23:29.728Z,72.34
2018-06-17T07:26:46.571Z,72.64
2018-06-17T07:29:35.203Z,71.00
2018-06-17T07:32:04.549Z,70.55
2018-06-17T07:34:34.125Z,70.40
2018-06-17T07:37:03.741Z,70.48
2018-06-17T07:40:48.648Z,71.67
2018-06-17T07:43:18.004Z,69.40
2018-06-17T07:45:47.691Z,67.14
2018-06-17T07:49:42.427Z,69.90
2018-06-17T07:52:31.674Z,69.59
2018-06-17T07:55:01.132Z,70.03
2018-06-17T07:57:31.616Z,69.56
2018-06-17T08:00:00.997Z,68.86
2018-06-17T08:02:30.320Z,66.14
2018-06-17T08:04:59.680Z,67.01
2018-06-17T08:07:29.000Z,67.50
2018-06-17T08:09:58.360Z,65.36
2018-06-17T08:12:27.687Z,65.24
2018-06-17T08:14:57.051Z,64.50
2018-06-17T08:17:26.400Z,65.73
2018-06-17T08:19:55.779Z,67.50
2018-06-17T08:22:25.084Z,66.38
2018-06-17T08:24:54.437Z,68.56
2018-06-17T08:27:23.755Z,69.59
2018-06-17T08:29:53.073Z,68.40
2018-06-17T08:32:22.468Z,67.75
2018-06-17T08:34:51.796Z,68.58
2018-06-17T08:37:21.125Z,67.17
2018-06-17T08:39:50.444Z,67.06
2018-06-17T08:42:19.752Z,66.20
2018-06-17T08:44:49.123Z,65.68
2018-06-17T08:47:18.540Z,63.72
2018-06-17T08:49:47.869Z,63.12
2018-06-17T08:52:17.221Z,62.58
2018-06-17T08:54:46.581Z,61.88
2018-06-17T08:57:16.137Z,63.47
2018-06-17T08:59:45.772Z,61.80
2018-06-17T09:02:15.386Z,62.52
2018-06-17T09:04:45.036Z,64.06
2018-06-17T09:07:14.316Z,64.97
2018-06-17T09:09:43.930Z,63.39
2018-06-17T09:12:13.608Z,61.25
2018-06-17T09:14:43.275Z,63.80
2018-06-17T09:17:12.639Z,64.18
2018-06-17T09:19:41.964Z,62.42
2018-06-17T09:22:11.293Z,63.08
2018-06-17T09:24:40.607Z,62.59
2018-06-17T09:27:09.936Z,61.22
2018-06-17T09:29:39.242Z,62.24
2018-06-17T09:32:08.645Z,61.56
2018-06-17T09:34:37.931Z,61.11
2018-06-17T09:37:07.300Z,60.84
2018-06-17T09:39:36.720Z,62.08
2018-06-17T09:42:06.120Z,62.05
2018-06-17T09:44:35.468Z,61.09
2018-06-17T09:47:04.781Z,61.80
2018-06-17T09:49:34.111Z,62.89
2018-06-17T09:52:03.429Z,61.91
2018-06-17T09:54:32.760Z,61.53
2018-06-17T09:57:02.206Z,60.48
2018-06-17T09:59:31.545Z,63.14
2018-06-17T10:02:00.989Z,62.65
2018-06-17T10:04:30.289Z,64.54
2018-06-17T10:06:59.642Z,62.84
2018-06-17T10:09:28.968Z,62.04
2018-06-17T10:11:58.277Z,61.46
2018-06-17T10:14:27.592Z,59.56
2018-06-17T10:16:56.945Z,59.26
2018-06-17T10:19:26.272Z,59.60
2018-06-17T10:21:55.576Z,61.63
2018-06-17T10:24:24.949Z,62.19
2018-06-17T10:26:54.248Z,62.68
2018-06-17T10:29:23.679Z,63.12
2018-06-17T10:31:52.940Z,62.17
2018-06-17T10:34:22.284Z,60.40
2018-06-17T10:36:51.610Z,61.59
2018-06-17T10:39:20.952Z,59.31
2018-06-17T10:41:50.281Z,60.14
2018-06-17T10:44:19.654Z,58.90
2018-06-17T10:46:49.540Z,58.59
2018-06-17T10:49:18.866Z,58.43
2018-06-17T10:55:16.164Z,57.46
2018-06-17T10:57:46.388Z,58.64
2018-06-17T11:00:15.725Z,59.56
2018-06-17T11:02:45.048Z,61.28
2018-06-17T11:05:14.426Z,57.70
2018-06-17T11:07:43.713Z,55.10
2018-06-17T11:10:13.037Z,55.69
2018-06-17T11:12:42.373Z,56.70
2018-06-17T11:15:11.679Z,56.90
2018-06-17T11:17:41.016Z,57.83
2018-06-17T11:20:10.342Z,58.70
2018-06-17T11:22:39.665Z,58.50
2018-06-17T11:25:09.398Z,59.13
2018-06-17T11:27:38.990Z,58.69
2018-06-17T11:30:08.640Z,59.37
2018-06-17T11:32:38.257Z,58.67
2018-06-17T11:35:07.607Z,60.68
2018-06-17T11:37:36.940Z,60.07
2018-06-17T11:40:06.259Z,60.57
2018-06-17T11:42:35.628Z,59.56
2018-06-17T11:45:05.002Z,59.57
2018-06-17T11:47:34.369Z,58.70
2018-06-17T11:50:03.740Z,58.33
2018-06-17T11:52:33.073Z,56.64
2018-06-17T11:55:02.423Z,55.72
2018-06-17T11:57:32.101Z,55.26
2018-06-17T12:00:01.786Z,55.26
2018-06-17T12:02:31.364Z,54.61
2018-06-17T12:05:00.903Z,53.59
2018-06-17T12:07:30.296Z,54.62
2018-06-17T12:09:59.620Z,55.72
2018-06-17T12:12:29.005Z,56.56
2018-06-17T12:14:58.354Z,54.43
2018-06-17T12:17:27.712Z,51.60
2018-06-17T12:19:57.072Z,51.23
2018-06-17T12:22:26.400Z,53.81
2018-06-17T12:24:55.759Z,53.54
2018-06-17T12:27:25.216Z,52.44
2018-06-17T12:29:54.655Z,52.59
2018-06-17T12:32:24.394Z,53.73
2018-06-17T12:34:53.749Z,54.23
2018-06-17T12:37:23.280Z,53.41
2018-06-17T12:39:52.391Z,50.54
2018-06-17T12:42:21.724Z,50.38
2018-06-17T12:44:51.049Z,51.27
2018-06-17T12:47:20.359Z,51.05
2018-06-17T12:49:49.708Z,52.09
2018-06-17T12:52:19.036Z,52.31
2018-06-17T12:54:48.407Z,54.05
2018-06-17T12:57:17.737Z,54.72
2018-06-17T12:59:47.064Z,54.19
2018-06-17T13:02:16.388Z,54.18
2018-06-17T13:04:45.824Z,54.35
2018-06-17T13:07:15.255Z,55.64
2018-06-17T13:09:44.601Z,55.12
2018-06-17T13:12:13.965Z,54.12
2018-06-17T13:14:43.409Z,54.74
2018-06-17T13:17:12.765Z,53.83
2018-06-17T13:19:42.148Z,53.73
2018-06-17T13:22:11.477Z,52.78
2018-06-17T13:24:40.856Z,52.53
2018-06-17T13:27:10.178Z,52.65
2018-06-17T13:29:39.543Z,51.52
2018-06-17T13:32:08.880Z,54.14
2018-06-17T13:34:38.229Z,54.14
2018-06-17T13:37:07.603Z,53.25
2018-06-17T13:39:36.973Z,54.06
2018-06-17T13:42:06.689Z,54.51
2018-06-17T13:44:36.039Z,55.53
2018-06-17T13:47:05.619Z,54.03
2018-06-17T13:49:34.987Z,54.30
2018-06-17T13:52:04.371Z,55.78
2018-06-17T13:54:33.710Z,55.33
2018-06-17T13:57:03.075Z,55.11
2018-06-17T13:59:32.449Z,54.39
2018-06-17T14:02:01.839Z,55.38
2018-06-17T14:04:31.198Z,55.29
2018-06-17T14:07:00.570Z,55.02
2018-06-17T14:09:29.927Z,54.47
2018-06-17T14:12:01.302Z,56.07
2018-06-17T14:14:30.698Z,56.40
2018-06-17T14:17:00.252Z,57.52
2018-06-17T14:19:29.597Z,56.70
2018-06-17T14:21:59.251Z,57.02
2018-06-17T14:24:28.597Z,54.79
2018-06-17T14:26:57.945Z,55.18
2018-06-17T14:29:27.285Z,55.95
2018-06-17T14:31:56.751Z,53.29
2018-06-17T14:34:26.462Z,53.12
2018-06-17T14:36:56.050Z,52.77
2018-06-17T14:39:25.704Z,53.41
2018-06-17T14:42:00.622Z,55.30
2018-06-17T14:44:35.335Z,54.10
2018-06-17T14:47:10.290Z,54.26
2018-06-17T14:49:44.873Z,55.43
2018-06-17T14:52:19.369Z,56.01
2018-06-17T14:54:48.684Z,57.61
2018-06-17T14:57:18.011Z,56.72
2018-06-17T14:59:47.374Z,54.71
2018-06-17T15:02:16.752Z,54.78
2018-06-17T15:04:46.087Z,55.01
2018-06-17T15:07:15.413Z,56.11
2018-06-17T15:09:44.769Z,56.85
2018-06-17T15:12:14.052Z,56.50
2018-06-17T15:14:43.415Z,56.01
2018-06-17T15:17:12.715Z,55.75
2018-06-17T15:19:42.056Z,55.89
2018-06-17T15:22:11.406Z,55.06
2018-06-17T15:24:40.705Z,56.68
2018-06-17T15:27:10.041Z,56.05
2018-06-17T15:29:39.365Z,53.99
2018-06-17T15:32:13.907Z,54.75
2018-06-17T15:34:48.318Z,55.43
2018-06-17T15:37:26.234Z,53.26
2018-06-17T15:39:58.925Z,55.25
2018-06-17T15:42:28.757Z,55.01
2018-06-17T15:44:58.073Z,56.59
2018-06-17T15:55:17.394Z,56.86
2018-06-17T15:57:46.700Z,55.42
2018-06-17T16:00:16.060Z,55.07
2018-06-17T16:02:45.389Z,55.42
2018-06-17T16:05:14.744Z,56.09
2018-06-17T16:07:44.305Z,55.47
2018-06-17T16:10:13.731Z,55.74
2018-06-17T16:13:50.146Z,56.44
2018-06-17T16:16:24.681Z,56.47
2018-06-17T16:18:59.338Z,56.40
2018-06-17T16:21:28.647Z,56.01
2018-06-17T16:23:58.000Z,56.26
2018-06-17T16:26:27.351Z,56.48
2018-06-17T16:28:56.672Z,57.72
2018-06-17T16:31:26.025Z,57.48
2018-06-17T16:33:55.363Z,58.07
2018-06-17T16:36:24.700Z,58.22
2018-06-17T16:38:54.120Z,58.84
2018-06-17T16:41:23.448Z,59.21
2018-06-17T16:43:53.043Z,59.85
2018-06-17T16:46:22.337Z,59.72
2018-06-17T16:48:51.645Z,59.63
2018-06-17T16:51:26.110Z,58.98
2018-06-17T16:54:00.727Z,59.61
2018-06-17T16:56:35.300Z,62.28
2018-06-17T16:59:09.876Z,64.51
2018-06-17T17:01:39.232Z,67.41
2018-06-17T17:04:08.581Z,65.49
2018-06-17T17:06:37.900Z,65.73
2018-06-17T17:09:10.268Z,65.03
2018-06-17T17:11:40.440Z,66.74
2018-06-17T17:14:10.891Z,65.58
2018-06-17T17:16:40.606Z,68.21
2018-06-17T17:19:09.944Z,64.14
2018-06-17T17:21:39.264Z,65.70
2018-06-17T17:24:08.616Z,64.52
2018-06-17T17:26:37.956Z,65.01
2018-06-17T17:29:07.302Z,62.87
2018-06-17T17:31:41.837Z,63.77
2018-06-17T17:34:20.036Z,65.08
2018-06-17T17:36:54.569Z,64.40
2018-06-17T17:39:29.111Z,64.48
2018-06-17T17:41:58.521Z,63.81
2018-06-17T17:44:27.923Z,64.68
2018-06-17T17:47:02.464Z,63.50
2018-06-17T17:49:32.020Z,64.22
2018-06-17T17:52:01.366Z,64.55
2018-06-17T17:54:30.496Z,64.79
2018-06-17T17:57:00.574Z,66.13
2018-06-17T17:59:30.724Z,67.76
2018-06-17T18:02:00.161Z,67.48
2018-06-17T18:04:29.745Z,68.12
2018-06-17T18:06:59.581Z,67.23
2018-06-17T18:09:29.274Z,67.57
2018-06-17T18:11:59.896Z,68.08
2018-06-17T18:14:30.816Z,67.75
2018-06-17T18:17:00.928Z,67.44
2018-06-17T18:19:30.914Z,66.98
2018-06-17T18:22:00.733Z,67.63
2018-06-17T18:24:31.236Z,67.51
2018-06-17T18:27:06.975Z,66.24
2018-06-17T18:29:43.387Z,67.23
2018-06-17T18:32:20.118Z,67.18
2018-06-17T18:34:56.663Z,67.61
2018-06-17T18:37:28.565Z,67.08
2018-06-17T18:40:00.220Z,67.60
2018-06-17T18:42:32.309Z,67.50
2018-06-17T18:45:04.347Z,67.57
2018-06-17T18:47:36.429Z,67.67
2018-06-17T18:50:08.833Z,68.45
2018-06-17T18:52:41.686Z,67.88
2018-06-17T18:55:14.502Z,67.06
2018-06-17T18:57:47.324Z,67.57
2018-06-17T19:00:19.383Z,67.50
2018-06-17T19:02:51.594Z,67.47
2018-06-17T19:05:25.209Z,67.12
2018-06-17T19:07:57.423Z,67.87
2018-06-17T19:10:34.176Z,67.85
2018-06-17T19:13:10.991Z,67.66
2018-06-17T19:15:47.719Z,67.46
2018-06-17T19:18:19.969Z,70.01
2018-06-17T19:20:52.103Z,69.34
2018-06-17T19:23:24.350Z,69.02
2018-06-17T19:25:56.229Z,69.62
2018-06-17T19:28:28.515Z,70.11
2018-06-17T19:31:00.685Z,70.10
2018-06-17T19:33:32.932Z,70.10
2018-06-17T19:36:05.079Z,70.83
2018-06-17T19:38:37.353Z,70.14
2018-06-17T19:41:09.924Z,70.19
2018-06-17T19:43:42.508Z,70.92
2018-06-17T19:46:14.695Z,71.79
2018-06-17T19:48:46.918Z,71.34
2018-06-17T19:51:23.471Z,72.63
2018-06-17T19:54:00.713Z,72.56
2018-06-17T19:56:37.574Z,72.43
2018-06-17T19:59:14.349Z,71.81
2018-06-17T20:01:47.009Z,71.60
2018-06-17T20:04:19.159Z,70.45
2018-06-17T20:06:51.531Z,70.13
2018-06-17T20:09:23.656Z,70.32
2018-06-17T20:11:55.955Z,70.24
2018-06-17T20:14:28.083Z,70.21
2018-06-17T20:17:00.240Z,70.22
2018-06-17T20:19:32.901Z,70.13
2018-06-17T20:22:05.048Z,69.83
2018-06-17T20:24:37.003Z,69.50
2018-06-17T20:27:08.951Z,71.54
2018-06-17T20:29:41.042Z,72.80
2018-06-17T20:32:17.769Z,73.30
2018-06-17T20:34:53.509Z,75.07
2018-06-17T20:37:30.272Z,76.08
2018-06-17T20:40:06.652Z,75.41
2018-06-17T20:42:43.015Z,75.02
2018-06-17T20:45:15.076Z,74.97
2018-06-17T20:47:45.597Z,74.05
2018-06-17T20:50:15.409Z,73.76
2018-06-17T20:52:44.821Z,73.51
2018-06-17T20:55:14.241Z,73.64
2018-06-17T20:57:43.693Z,73.89
2018-06-17T21:00:13.068Z,75.36
2018-06-17T21:02:42.532Z,74.86
2018-06-17T21:05:12.025Z,75.73
2018-06-17T21:07:41.145Z,74.85
2018-06-17T21:10:10.536Z,74.69
2018-06-17T21:12:39.857Z,75.11
2018-06-17T21:15:14.308Z,73.91
2018-06-17T21:17:43.684Z,74.87
2018-06-17T21:20:18.268Z,74.33
2018-06-17T21:22:52.776Z,74.67
2018-06-17T21:25:27.401Z,75.18
2018-06-17T21:27:58.176Z,76.31
2018-06-17T21:30:27.529Z,76.49
2018-06-17T21:32:56.849Z,76.86
2018-06-17T21:35:27.114Z,76.97
2018-06-17T21:37:56.423Z,77.84
2018-06-17T21:40:25.762Z,77.32
2018-06-17T21:42:55.140Z,78.16
2018-06-17T21:45:24.448Z,76.99
2018-06-17T21:47:53.788Z,78.44
2018-06-17T21:50:23.123Z,76.92
2018-06-17T21:52:52.510Z,76.29
2018-06-17T21:55:21.877Z,76.71
2018-06-17T21:57:51.205Z,76.08
2018-06-17T22:00:20.535Z,76.02
2018-06-17T22:02:49.852Z,76.00
2018-06-17T22:05:19.151Z,75.32
2018-06-17T22:07:53.662Z,75.32
2018-06-17T22:10:28.200Z,76.57
2018-06-17T22:12:59.402Z,77.70
2018-06-17T22:15:34.064Z,78.44
2018-06-17T22:18:03.844Z,78.36
2018-06-17T22:20:33.179Z,79.16
2018-06-17T22:23:02.524Z,79.27
2018-06-17T22:25:31.847Z,79.70
2018-06-17T22:28:01.199Z,79.78
2018-06-17T22:30:30.590Z,78.89
2018-06-17T22:32:59.927Z,79.65
2018-06-17T22:35:29.236Z,79.72
2018-06-17T22:37:58.546Z,79.83
2018-06-17T22:40:27.896Z,80.69
2018-06-17T22:42:57.212Z,80.79
2018-06-17T22:45:26.756Z,80.82
2018-06-17T22:47:58.408Z,81.20
2018-06-17T22:50:28.093Z,81.28
2018-06-17T22:53:08.488Z,81.76
2018-06-17T22:55:37.843Z,81.42
2018-06-17T22:58:12.258Z,82.51
2018-06-17T23:00:46.659Z,82.49
2018-06-17T23:03:21.087Z,83.76
2018-06-17T23:05:55.641Z,83.76
2018-06-17T23:08:30.181Z,82.96
2018-06-17T23:10:59.447Z,83.80
2018-06-17T23:13:28.769Z,83.57
2018-06-17T23:15:58.100Z,83.51
2018-06-17T23:18:27.433Z,83.65
2018-06-17T23:20:56.744Z,83.14
2018-06-17T23:23:26.143Z,83.06
2018-06-17T23:25:55.452Z,81.85
2018-06-17T23:28:24.838Z,83.37
2018-06-17T23:30:54.176Z,83.29
2018-06-17T23:33:23.509Z,82.31
2018-06-17T23:35:52.865Z,83.06
2018-06-17T23:38:22.187Z,82.96
2018-06-17T23:40:51.529Z,83.58
2018-06-17T23:43:20.895Z,82.95
2018-06-17T23:45:55.492Z,83.63
2018-06-17T23:48:30.155Z,83.58
2018-06-17T23:51:04.889Z,83.40
2018-06-17T23:53:39.564Z,82.49
2018-06-17T23:56:10.060Z,81.07
2018-06-17T23:58:40.056Z,80.14
